sensor_id;sensor_type;location;lat;lon;timestamp;pressure;altitude;pressure_sealevel;temperature;humidity
75401;BME280;63974;47.538;18.972;2023-04-01T00:02:35;99015.28;;;10.79;78.51
75401;BME280;63974;47.538;18.972;2023-04-01T00:05:38;99017.50;;;10.69;78.39
75401;BME280;63974;47.538;18.972;2023-04-01T00:08:41;99009.31;;;10.59;77.98
75401;BME280;63974;47.538;18.972;2023-04-01T00:11:44;99008.13;;;10.62;78.05
75401;BME280;63974;47.538;18.972;2023-04-01T00:14:47;99013.50;;;10.60;78.77
75401;BME280;63974;47.538;18.972;2023-04-01T00:17:50;99019.69;;;10.59;78.70
75401;BME280;63974;47.538;18.972;2023-04-01T00:20:53;99014.09;;;10.62;78.46
75401;BME280;63974;47.538;18.972;2023-04-01T00:23:56;99004.91;;;10.60;78.60
75401;BME280;63974;47.538;18.972;2023-04-01T00:27:00;98999.91;;;10.58;79.26
75401;BME280;63974;47.538;18.972;2023-04-01T00:30:03;99010.50;;;10.63;78.82
75401;BME280;63974;47.538;18.972;2023-04-01T00:33:06;99010.50;;;10.57;79.13
75401;BME280;63974;47.538;18.972;2023-04-01T00:36:15;99012.91;;;10.52;79.48
75401;BME280;63974;47.538;18.972;2023-04-01T00:39:19;99010.50;;;10.57;79.40
75401;BME280;63974;47.538;18.972;2023-04-01T00:42:23;99013.91;;;10.51;79.69
75401;BME280;63974;47.538;18.972;2023-04-01T00:45:42;99004.91;;;10.53;79.68
75401;BME280;63974;47.538;18.972;2023-04-01T00:48:54;99003.91;;;10.48;79.66
75401;BME280;63974;47.538;18.972;2023-04-01T00:51:59;98993.13;;;10.38;79.96
75401;BME280;63974;47.538;18.972;2023-04-01T00:55:05;98989.34;;;10.47;79.70
75401;BME280;63974;47.538;18.972;2023-04-01T00:58:14;98976.75;;;10.44;79.38
75401;BME280;63974;47.538;18.972;2023-04-01T01:01:20;98983.94;;;10.42;80.37
75401;BME280;63974;47.538;18.972;2023-04-01T01:04:27;98981.34;;;10.35;79.81
75401;BME280;63974;47.538;18.972;2023-04-01T01:10:33;98972.78;;;10.35;80.79
75401;BME280;63974;47.538;18.972;2023-04-01T01:14:08;98967.59;;;10.22;81.13
75401;BME280;63974;47.538;18.972;2023-04-01T01:17:34;98965.97;;;10.34;81.40
75401;BME280;63974;47.538;18.972;2023-04-01T01:24:17;98962.19;;;10.36;80.94
75401;BME280;63974;47.538;18.972;2023-04-01T01:27:27;98969.19;;;10.36;80.97
75401;BME280;63974;47.538;18.972;2023-04-01T01:30:38;98971.16;;;10.27;81.50
75401;BME280;63974;47.538;18.972;2023-04-01T01:37:16;98970.38;;;10.20;82.12
75401;BME280;63974;47.538;18.972;2023-04-01T01:40:20;98960.00;;;10.20;82.10
75401;BME280;63974;47.538;18.972;2023-04-01T01:43:28;98968.38;;;10.29;82.22
75401;BME280;63974;47.538;18.972;2023-04-01T01:46:32;98971.38;;;10.26;82.37
75401;BME280;63974;47.538;18.972;2023-04-01T01:49:36;98980.91;;;10.19;82.10
75401;BME280;63974;47.538;18.972;2023-04-01T01:52:39;98974.13;;;10.18;82.44
75401;BME280;63974;47.538;18.972;2023-04-01T01:55:45;98974.34;;;10.16;82.39
75401;BME280;63974;47.538;18.972;2023-04-01T01:58:57;98980.50;;;10.15;82.27
75401;BME280;63974;47.538;18.972;2023-04-01T02:02:04;98973.38;;;10.24;82.38
75401;BME280;63974;47.538;18.972;2023-04-01T02:05:12;98967.19;;;10.25;82.92
75401;BME280;63974;47.538;18.972;2023-04-01T02:08:25;98973.97;;;10.19;82.77
75401;BME280;63974;47.538;18.972;2023-04-01T02:11:45;98976.31;;;10.08;82.98
75401;BME280;63974;47.538;18.972;2023-04-01T02:14:53;98975.72;;;10.06;83.38
75401;BME280;63974;47.538;18.972;2023-04-01T02:17:57;98974.72;;;10.07;83.61
75401;BME280;63974;47.538;18.972;2023-04-01T02:21:00;98984.91;;;10.02;83.94
75401;BME280;63974;47.538;18.972;2023-04-01T02:24:06;98985.69;;;10.09;83.88
75401;BME280;63974;47.538;18.972;2023-04-01T02:27:11;98980.88;;;9.99;84.35
75401;BME280;63974;47.538;18.972;2023-04-01T02:30:16;98984.84;;;9.95;84.71
75401;BME280;63974;47.538;18.972;2023-04-01T02:33:20;98973.47;;;9.90;85.25
75401;BME280;63974;47.538;18.972;2023-04-01T02:36:24;98981.25;;;9.96;85.24
75401;BME280;63974;47.538;18.972;2023-04-01T02:39:28;98969.72;;;9.99;84.59
75401;BME280;63974;47.538;18.972;2023-04-01T02:42:31;98966.69;;;9.95;84.53
75401;BME280;63974;47.538;18.972;2023-04-01T02:45:33;98973.53;;;10.03;84.25
75401;BME280;63974;47.538;18.972;2023-04-01T02:48:37;98957.94;;;9.96;84.46
75401;BME280;63974;47.538;18.972;2023-04-01T02:51:40;98963.31;;;10.01;84.52
75401;BME280;63974;47.538;18.972;2023-04-01T02:54:43;98954.13;;;9.92;84.46
75401;BME280;63974;47.538;18.972;2023-04-01T02:57:45;98943.97;;;9.91;84.60
75401;BME280;63974;47.538;18.972;2023-04-01T03:00:48;98944.16;;;9.89;84.58
75401;BME280;63974;47.538;18.972;2023-04-01T03:03:51;98940.75;;;9.82;84.81
75401;BME280;63974;47.538;18.972;2023-04-01T03:06:54;98934.34;;;9.85;85.20
75401;BME280;63974;47.538;18.972;2023-04-01T03:09:57;98937.16;;;9.83;84.90
75401;BME280;63974;47.538;18.972;2023-04-01T03:13:01;98934.97;;;9.80;84.82
75401;BME280;63974;47.538;18.972;2023-04-01T03:16:04;98918.19;;;9.70;84.73
75401;BME280;63974;47.538;18.972;2023-04-01T03:19:07;98913.41;;;9.80;84.33
75401;BME280;63974;47.538;18.972;2023-04-01T03:22:11;98914.63;;;9.90;84.15
75401;BME280;63974;47.538;18.972;2023-04-01T03:25:13;98910.84;;;9.86;83.95
75401;BME280;63974;47.538;18.972;2023-04-01T03:28:16;98910.84;;;9.80;83.52
75401;BME280;63974;47.538;18.972;2023-04-01T03:31:19;98906.06;;;9.83;83.19
75401;BME280;63974;47.538;18.972;2023-04-01T03:34:28;98902.28;;;9.79;83.43
75401;BME280;63974;47.538;18.972;2023-04-01T03:37:31;98909.03;;;9.74;83.25
75401;BME280;63974;47.538;18.972;2023-04-01T03:40:34;98900.63;;;9.72;83.34
75401;BME280;63974;47.538;18.972;2023-04-01T03:43:41;98883.31;;;9.72;83.62
75401;BME280;63974;47.538;18.972;2023-04-01T03:46:44;98877.72;;;9.75;82.99
75401;BME280;63974;47.538;18.972;2023-04-01T03:49:47;98881.31;;;9.81;82.72
75401;BME280;63974;47.538;18.972;2023-04-01T03:52:49;98886.31;;;9.76;82.71
75401;BME280;63974;47.538;18.972;2023-04-01T03:55:53;98885.91;;;9.79;83.30
75401;BME280;63974;47.538;18.972;2023-04-01T03:58:56;98884.13;;;9.79;82.81
75401;BME280;63974;47.538;18.972;2023-04-01T04:01:59;98875.72;;;9.77;82.80
75401;BME280;63974;47.538;18.972;2023-04-01T04:05:03;98880.91;;;9.71;82.75
75401;BME280;63974;47.538;18.972;2023-04-01T04:08:08;98879.13;;;9.71;82.75
75401;BME280;63974;47.538;18.972;2023-04-01T04:11:11;98876.72;;;9.76;82.56
75401;BME280;63974;47.538;18.972;2023-04-01T04:14:16;98871.34;;;9.71;82.64
75401;BME280;63974;47.538;18.972;2023-04-01T04:17:20;98874.13;;;9.63;82.94
75401;BME280;63974;47.538;18.972;2023-04-01T04:20:23;98878.31;;;9.64;82.78
75401;BME280;63974;47.538;18.972;2023-04-01T04:23:26;98877.88;;;9.61;82.51
75401;BME280;63974;47.538;18.972;2023-04-01T04:26:31;98878.84;;;9.47;83.26
75401;BME280;63974;47.538;18.972;2023-04-01T04:29:35;98881.84;;;9.37;83.52
75401;BME280;63974;47.538;18.972;2023-04-01T04:32:38;98891.09;;;9.12;84.78
75401;BME280;63974;47.538;18.972;2023-04-01T04:35:41;98900.41;;;9.00;85.76
75401;BME280;63974;47.538;18.972;2023-04-01T04:38:45;98901.19;;;8.94;86.19
75401;BME280;63974;47.538;18.972;2023-04-01T04:41:48;98910.63;;;9.08;85.68
75401;BME280;63974;47.538;18.972;2023-04-01T04:44:51;98912.97;;;9.03;86.15
75401;BME280;63974;47.538;18.972;2023-04-01T04:47:54;98909.78;;;9.01;86.25
75401;BME280;63974;47.538;18.972;2023-04-01T04:50:57;98911.72;;;8.93;86.70
75401;BME280;63974;47.538;18.972;2023-04-01T04:54:00;98909.94;;;8.93;86.54
75401;BME280;63974;47.538;18.972;2023-04-01T04:57:16;98924.75;;;9.06;86.45
75401;BME280;63974;47.538;18.972;2023-04-01T05:00:26;98913.84;;;9.17;85.22
75401;BME280;63974;47.538;18.972;2023-04-01T05:03:35;98908.88;;;9.22;85.25
75401;BME280;63974;47.538;18.972;2023-04-01T05:06:38;98906.69;;;9.25;85.07
75401;BME280;63974;47.538;18.972;2023-04-01T05:09:41;98896.00;;;9.48;84.41
75401;BME280;63974;47.538;18.972;2023-04-01T05:12:45;98896.66;;;9.63;83.64
75401;BME280;63974;47.538;18.972;2023-04-01T05:15:52;98891.09;;;9.72;83.31
75401;BME280;63974;47.538;18.972;2023-04-01T05:18:55;98897.47;;;9.83;82.95
75401;BME280;63974;47.538;18.972;2023-04-01T05:21:58;98895.69;;;9.83;82.98
75401;BME280;63974;47.538;18.972;2023-04-01T05:25:01;98896.09;;;9.80;82.93
75401;BME280;63974;47.538;18.972;2023-04-01T05:28:04;98898.03;;;9.72;82.92
75401;BME280;63974;47.538;18.972;2023-04-01T05:31:08;98909.22;;;9.66;83.49
75401;BME280;63974;47.538;18.972;2023-04-01T05:34:14;98915.19;;;9.66;83.79
75401;BME280;63974;47.538;18.972;2023-04-01T05:37:17;98916.97;;;9.59;83.73
75401;BME280;63974;47.538;18.972;2023-04-01T05:40:20;98922.56;;;9.63;84.15
75401;BME280;63974;47.538;18.972;2023-04-01T05:43:23;98931.03;;;9.31;85.17
75401;BME280;63974;47.538;18.972;2023-04-01T05:46:28;98920.13;;;9.48;84.85
75401;BME280;63974;47.538;18.972;2023-04-01T05:49:47;98930.13;;;9.58;84.39
75401;BME280;63974;47.538;18.972;2023-04-01T05:52:50;98928.75;;;9.68;84.08
75401;BME280;63974;47.538;18.972;2023-04-01T05:55:53;98934.16;;;9.80;83.59
75401;BME280;63974;47.538;18.972;2023-04-01T05:58:56;98939.16;;;9.81;83.97
75401;BME280;63974;47.538;18.972;2023-04-01T06:01:59;98937.75;;;9.85;84.43
75401;BME280;63974;47.538;18.972;2023-04-01T06:08:15;98940.38;;;9.92;83.29
75401;BME280;63974;47.538;18.972;2023-04-01T06:11:31;98946.16;;;10.00;82.43
75401;BME280;63974;47.538;18.972;2023-04-01T06:18:35;98942.22;;;10.04;82.41
75401;BME280;63974;47.538;18.972;2023-04-01T06:25:04;98950.56;;;9.93;83.36
75401;BME280;63974;47.538;18.972;2023-04-01T06:39:26;98975.31;;;10.15;81.66
75401;BME280;63974;47.538;18.972;2023-04-01T06:43:05;98975.53;;;10.07;81.44
75401;BME280;63974;47.538;18.972;2023-04-01T06:46:55;98976.97;;;10.23;81.22
75401;BME280;63974;47.538;18.972;2023-04-01T06:50:26;98977.34;;;10.33;81.37
75401;BME280;63974;47.538;18.972;2023-04-01T06:54:28;98978.94;;;10.27;81.60
75401;BME280;63974;47.538;18.972;2023-04-01T06:57:46;98986.53;;;10.29;81.90
75401;BME280;63974;47.538;18.972;2023-04-01T07:01:02;98987.69;;;10.13;81.85
75401;BME280;63974;47.538;18.972;2023-04-01T07:04:13;98984.69;;;10.03;82.13
75401;BME280;63974;47.538;18.972;2023-04-01T07:10:56;98986.50;;;10.09;82.14
75401;BME280;63974;47.538;18.972;2023-04-01T07:14:33;98982.16;;;10.29;81.35
75401;BME280;63974;47.538;18.972;2023-04-01T07:17:39;98987.53;;;10.54;79.73
75401;BME280;63974;47.538;18.972;2023-04-01T07:20:44;98985.34;;;10.64;79.25
75401;BME280;63974;47.538;18.972;2023-04-01T07:23:49;98981.94;;;10.50;79.32
75401;BME280;63974;47.538;18.972;2023-04-01T07:27:13;98985.53;;;10.56;79.04
75401;BME280;63974;47.538;18.972;2023-04-01T07:30:21;98993.72;;;10.59;79.00
75401;BME280;63974;47.538;18.972;2023-04-01T07:33:33;98997.31;;;10.45;81.07
75401;BME280;63974;47.538;18.972;2023-04-01T07:37:12;98999.91;;;10.52;81.11
75401;BME280;63974;47.538;18.972;2023-04-01T07:43:36;99004.50;;;10.63;79.83
75401;BME280;63974;47.538;18.972;2023-04-01T07:57:31;98994.69;;;10.97;77.79
75401;BME280;63974;47.538;18.972;2023-04-01T08:12:18;99004.13;;;11.55;77.04
75401;BME280;63974;47.538;18.972;2023-04-01T08:15:27;99003.56;;;11.46;77.37
75401;BME280;63974;47.538;18.972;2023-04-01T08:22:40;99007.81;;;11.28;76.64
75401;BME280;63974;47.538;18.972;2023-04-01T08:29:16;99000.44;;;11.31;76.87
75401;BME280;63974;47.538;18.972;2023-04-01T08:32:43;99001.97;;;11.45;77.11
75401;BME280;63974;47.538;18.972;2023-04-01T08:39:09;99002.88;;;11.77;75.54
75401;BME280;63974;47.538;18.972;2023-04-01T08:53:24;98996.94;;;11.57;75.74
75401;BME280;63974;47.538;18.972;2023-04-01T08:56:39;99015.31;;;11.68;75.87
75401;BME280;63974;47.538;18.972;2023-04-01T09:40:58;99017.97;;;11.99;68.12
75401;BME280;63974;47.538;18.972;2023-04-01T09:44:37;99021.91;;;12.08;67.21
75401;BME280;63974;47.538;18.972;2023-04-01T09:48:01;99016.22;;;12.24;66.84
75401;BME280;63974;47.538;18.972;2023-04-01T10:13:06;99014.75;;;12.59;65.64
75401;BME280;63974;47.538;18.972;2023-04-01T10:34:20;99027.59;;;13.63;63.00
75401;BME280;63974;47.538;18.972;2023-04-01T10:52:20;99037.81;;;13.47;62.22
75401;BME280;63974;47.538;18.972;2023-04-01T11:18:33;99033.69;;;13.39;61.20
75401;BME280;63974;47.538;18.972;2023-04-01T11:35:42;99017.22;;;14.04;57.82
75401;BME280;63974;47.538;18.972;2023-04-01T11:42:51;99019.75;;;14.40;57.46
75401;BME280;63974;47.538;18.972;2023-04-01T11:46:21;99021.63;;;14.22;56.32
75401;BME280;63974;47.538;18.972;2023-04-01T11:56:39;99034.16;;;14.02;56.46
75401;BME280;63974;47.538;18.972;2023-04-01T12:00:04;99036.97;;;14.00;58.15
75401;BME280;63974;47.538;18.972;2023-04-01T12:03:42;99044.75;;;13.89;58.53
75401;BME280;63974;47.538;18.972;2023-04-01T12:13:44;99042.28;;;13.94;63.93
75401;BME280;63974;47.538;18.972;2023-04-01T12:30:46;99027.25;;;14.37;64.19
75401;BME280;63974;47.538;18.972;2023-04-01T12:37:38;99025.13;;;14.45;64.09
75401;BME280;63974;47.538;18.972;2023-04-01T12:50:40;99026.97;;;14.56;63.19
75401;BME280;63974;47.538;18.972;2023-04-01T12:57:41;99018.13;;;14.92;61.37
75401;BME280;63974;47.538;18.972;2023-04-01T13:07:17;99015.91;;;14.31;58.95
75401;BME280;63974;47.538;18.972;2023-04-01T13:17:17;99027.00;;;14.27;63.19
75401;BME280;63974;47.538;18.972;2023-04-01T13:27:20;99022.00;;;14.66;61.01
75401;BME280;63974;47.538;18.972;2023-04-01T13:30:29;99024.59;;;14.66;56.90
75401;BME280;63974;47.538;18.972;2023-04-01T13:37:31;99032.22;;;15.02;61.21
75401;BME280;63974;47.538;18.972;2023-04-01T13:44:23;99015.91;;;14.13;62.15
75401;BME280;63974;47.538;18.972;2023-04-01T14:15:22;99011.25;;;14.33;45.51
75401;BME280;63974;47.538;18.972;2023-04-01T14:18:46;99010.22;;;14.34;47.78
75401;BME280;63974;47.538;18.972;2023-04-01T14:22:46;99013.53;;;14.12;50.67
75401;BME280;63974;47.538;18.972;2023-04-01T14:32:33;99001.66;;;13.68;53.41
75401;BME280;63974;47.538;18.972;2023-04-01T14:49:05;99017.16;;;13.28;57.08
75401;BME280;63974;47.538;18.972;2023-04-01T14:52:30;99018.72;;;12.86;57.54
75401;BME280;63974;47.538;18.972;2023-04-01T14:58:49;99029.88;;;13.00;58.90
75401;BME280;63974;47.538;18.972;2023-04-01T15:06:09;99042.03;;;12.81;62.50
75401;BME280;63974;47.538;18.972;2023-04-01T15:19:04;99043.44;;;12.22;64.39
75401;BME280;63974;47.538;18.972;2023-04-01T15:36:45;99043.13;;;11.55;65.74
75401;BME280;63974;47.538;18.972;2023-04-01T15:49:48;99052.34;;;11.57;66.21
75401;BME280;63974;47.538;18.972;2023-04-01T16:03:57;99054.72;;;11.59;65.84
75401;BME280;63974;47.538;18.972;2023-04-01T16:13:32;99078.97;;;11.33;67.02
75401;BME280;63974;47.538;18.972;2023-04-01T16:20:02;99082.16;;;11.35;66.80
75401;BME280;63974;47.538;18.972;2023-04-01T16:23:40;99095.72;;;11.44;66.73
75401;BME280;63974;47.538;18.972;2023-04-01T16:26:52;99100.53;;;11.47;67.01
75401;BME280;63974;47.538;18.972;2023-04-01T16:30:01;99101.94;;;11.43;67.60
75401;BME280;63974;47.538;18.972;2023-04-01T16:36:54;99094.72;;;11.64;66.47
75401;BME280;63974;47.538;18.972;2023-04-01T16:43:28;99092.47;;;11.81;67.39
75401;BME280;63974;47.538;18.972;2023-04-01T16:46:45;99081.09;;;11.75;67.08
75401;BME280;63974;47.538;18.972;2023-04-01T16:50:06;99088.09;;;11.75;66.93
75401;BME280;63974;47.538;18.972;2023-04-01T16:56:36;99090.72;;;11.42;66.02
75401;BME280;63974;47.538;18.972;2023-04-01T17:13:13;99104.94;;;10.69;68.38
75401;BME280;63974;47.538;18.972;2023-04-01T17:20:35;99118.09;;;10.41;69.60
75401;BME280;63974;47.538;18.972;2023-04-01T17:24:14;99119.25;;;10.32;70.20
75401;BME280;63974;47.538;18.972;2023-04-01T17:27:46;99117.81;;;10.23;70.89
75401;BME280;63974;47.538;18.972;2023-04-01T17:37:56;99140.44;;;9.95;72.12
75401;BME280;63974;47.538;18.972;2023-04-01T18:08:03;99174.97;;;9.41;73.57
75401;BME280;63974;47.538;18.972;2023-04-01T18:12:21;99175.72;;;9.35;74.02
75401;BME280;63974;47.538;18.972;2023-04-01T18:15:15;99176.44;;;9.22;74.45
75401;BME280;63974;47.538;18.972;2023-04-01T18:18:37;99165.25;;;9.22;74.42
75401;BME280;63974;47.538;18.972;2023-04-01T18:21:50;99177.16;;;9.16;74.45
75401;BME280;63974;47.538;18.972;2023-04-01T18:25:12;99183.72;;;9.12;74.53
75401;BME280;63974;47.538;18.972;2023-04-01T18:28:36;99187.84;;;9.07;75.01
75401;BME280;63974;47.538;18.972;2023-04-01T18:31:44;99176.44;;;9.01;75.02
75401;BME280;63974;47.538;18.972;2023-04-01T18:38:16;99181.81;;;8.79;75.66
75401;BME280;63974;47.538;18.972;2023-04-01T18:45:31;99197.50;;;8.77;75.93
75401;BME280;63974;47.538;18.972;2023-04-01T18:48:55;99201.75;;;8.64;76.20
75401;BME280;63974;47.538;18.972;2023-04-01T18:55:42;99195.19;;;8.47;76.47
75401;BME280;63974;47.538;18.972;2023-04-01T18:59:04;99207.94;;;8.49;76.70
75401;BME280;63974;47.538;18.972;2023-04-01T19:02:25;99206.88;;;8.43;76.74
75401;BME280;63974;47.538;18.972;2023-04-01T19:05:34;99213.13;;;8.49;76.39
75401;BME280;63974;47.538;18.972;2023-04-01T19:08:40;99220.19;;;8.40;76.70
75401;BME280;63974;47.538;18.972;2023-04-01T19:12:02;99210.47;;;8.42;76.40
75401;BME280;63974;47.538;18.972;2023-04-01T19:21:35;99216.88;;;8.46;76.26
75401;BME280;63974;47.538;18.972;2023-04-01T19:31:16;99234.44;;;8.51;75.39
75401;BME280;63974;47.538;18.972;2023-04-01T19:37:40;99235.50;;;8.56;74.97
75401;BME280;63974;47.538;18.972;2023-04-01T19:41:19;99237.09;;;8.57;74.79
75401;BME280;63974;47.538;18.972;2023-04-01T19:51:42;99239.97;;;8.33;75.41
75401;BME280;63974;47.538;18.972;2023-04-01T19:58:25;99243.72;;;8.31;75.52
75401;BME280;63974;47.538;18.972;2023-04-01T20:01:43;99245.44;;;8.24;75.78
75401;BME280;63974;47.538;18.972;2023-04-01T20:04:54;99245.78;;;8.21;75.78
75401;BME280;63974;47.538;18.972;2023-04-01T20:14:46;99239.97;;;8.19;75.64
75401;BME280;63974;47.538;18.972;2023-04-01T20:17:52;99237.56;;;8.17;76.05
75401;BME280;63974;47.538;18.972;2023-04-01T20:21:00;99243.84;;;8.23;75.47
75401;BME280;63974;47.538;18.972;2023-04-01T20:27:22;99246.44;;;8.00;76.41
75401;BME280;63974;47.538;18.972;2023-04-01T20:40:36;99240.75;;;8.05;76.62
75401;BME280;63974;47.538;18.972;2023-04-01T20:50:51;99244.03;;;8.13;76.75
75401;BME280;63974;47.538;18.972;2023-04-01T20:55:01;99254.66;;;8.04;77.23
75401;BME280;63974;47.538;18.972;2023-04-01T20:58:12;99264.75;;;7.99;77.65
75401;BME280;63974;47.538;18.972;2023-04-01T21:14:58;99277.03;;;7.97;78.24
75401;BME280;63974;47.538;18.972;2023-04-01T21:18:29;99273.72;;;7.88;78.82
75401;BME280;63974;47.538;18.972;2023-04-01T22:02:16;99311.03;;;7.71;79.23
75401;BME280;63974;47.538;18.972;2023-04-01T22:08:52;99311.13;;;7.78;78.51
75401;BME280;63974;47.538;18.972;2023-04-01T22:12:25;99305.16;;;7.77;78.55
75401;BME280;63974;47.538;18.972;2023-04-01T22:16:02;99305.34;;;7.76;78.19
75401;BME280;63974;47.538;18.972;2023-04-01T22:22:31;99317.84;;;7.87;77.67
75401;BME280;63974;47.538;18.972;2023-04-01T22:29:26;99314.63;;;7.85;77.50
75401;BME280;63974;47.538;18.972;2023-04-01T22:32:44;99317.03;;;7.86;77.42
75401;BME280;63974;47.538;18.972;2023-04-01T22:42:23;99325.34;;;7.96;76.44
75401;BME280;63974;47.538;18.972;2023-04-01T22:52:36;99324.03;;;8.15;74.84
75401;BME280;63974;47.538;18.972;2023-04-01T22:55:43;99321.28;;;8.16;74.45
75401;BME280;63974;47.538;18.972;2023-04-01T23:02:27;99324.66;;;8.17;74.16
75401;BME280;63974;47.538;18.972;2023-04-01T23:05:31;99318.41;;;8.11;74.06
75401;BME280;63974;47.538;18.972;2023-04-01T23:11:48;99318.16;;;7.84;75.39
75401;BME280;63974;47.538;18.972;2023-04-01T23:14:58;99324.84;;;7.78;75.68
75401;BME280;63974;47.538;18.972;2023-04-01T23:21:29;99342.69;;;7.88;74.48
75401;BME280;63974;47.538;18.972;2023-04-01T23:24:43;99342.44;;;7.97;73.17
75401;BME280;63974;47.538;18.972;2023-04-01T23:27:54;99341.22;;;8.08;72.56
75401;BME280;63974;47.538;18.972;2023-04-01T23:30:58;99344.88;;;8.13;71.91
75401;BME280;63974;47.538;18.972;2023-04-01T23:34:32;99352.47;;;8.15;71.65
75401;BME280;63974;47.538;18.972;2023-04-01T23:37:36;99348.25;;;8.22;70.62
75401;BME280;63974;47.538;18.972;2023-04-01T23:40:40;99354.13;;;8.30;69.99
75401;BME280;63974;47.538;18.972;2023-04-01T23:43:44;99355.94;;;8.44;68.73
75401;BME280;63974;47.538;18.972;2023-04-01T23:46:48;99352.59;;;8.50;68.62
75401;BME280;63974;47.538;18.972;2023-04-01T23:49:53;99350.22;;;8.49;68.55
75401;BME280;63974;47.538;18.972;2023-04-01T23:53:02;99352.25;;;8.39;69.14
75401;BME280;63974;47.538;18.972;2023-04-01T23:56:06;99355.22;;;7.99;71.08
75401;BME280;63974;47.538;18.972;2023-04-01T23:59:40;99364.88;;;7.82;70.77
